createdAt,value
2023-01-09T00:01:36.688Z,3.80
2023-01-09T00:04:04.436Z,3.90
2023-01-09T00:06:31.630Z,3.90
2023-01-09T00:08:58.784Z,3.90
2023-01-09T00:11:26.248Z,4.00
2023-01-09T00:13:53.489Z,3.90
2023-01-09T00:16:21.029Z,3.90
2023-01-09T00:18:48.476Z,3.90
2023-01-09T00:21:16.638Z,4.00
2023-01-09T00:23:43.741Z,4.00
2023-01-09T00:26:17.946Z,4.00
2023-01-09T00:28:46.489Z,4.00
2023-01-09T00:31:15.786Z,3.90
2023-01-09T00:33:46.142Z,4.00
2023-01-09T00:36:13.455Z,4.00
2023-01-09T00:38:42.106Z,4.00
2023-01-09T00:41:14.631Z,4.00
2023-01-09T00:43:47.130Z,4.00
2023-01-09T00:46:15.904Z,3.90
2023-01-09T00:48:45.923Z,3.80
2023-01-09T00:51:13.888Z,3.80
2023-01-09T00:53:43.680Z,3.90
2023-01-09T00:56:16.838Z,3.90
2023-01-09T00:58:44.566Z,3.90
2023-01-09T01:01:12.420Z,3.90
2023-01-09T01:03:39.664Z,3.90
2023-01-09T01:06:25.896Z,4.00
2023-01-09T01:08:55.812Z,3.90
2023-01-09T01:11:23.229Z,3.90
2023-01-09T01:13:50.736Z,3.90
2023-01-09T01:16:18.583Z,3.90
2023-01-09T01:18:46.252Z,3.90
2023-01-09T01:21:14.677Z,3.80
2023-01-09T01:23:42.041Z,3.70
2023-01-09T01:26:17.173Z,3.80
2023-01-09T01:28:44.649Z,3.80
2023-01-09T01:31:19.279Z,3.80
2023-01-09T01:33:47.161Z,3.80
2023-01-09T01:36:17.507Z,3.90
2023-01-09T01:38:46.976Z,3.90
2023-01-09T01:41:14.620Z,3.90
2023-01-09T01:43:55.732Z,4.00
2023-01-09T01:46:23.364Z,4.10
2023-01-09T01:48:55.940Z,4.20
2023-01-09T01:51:25.129Z,4.30
2023-01-09T01:53:55.258Z,4.30
2023-01-09T01:56:28.749Z,4.40
2023-01-09T01:59:06.264Z,4.50
2023-01-09T02:01:34.320Z,4.60
2023-01-09T02:04:02.718Z,4.70
2023-01-09T02:06:30.540Z,4.70
2023-01-09T02:08:57.907Z,4.80
2023-01-09T02:11:25.269Z,4.90
2023-01-09T02:13:52.836Z,4.90
2023-01-09T02:16:49.682Z,5.00
2023-01-09T02:19:55.035Z,5.00
2023-01-09T02:22:25.112Z,5.00
2023-01-09T02:25:16.422Z,5.10
2023-01-09T02:28:11.656Z,5.10
2023-01-09T02:30:46.697Z,5.20
2023-01-09T02:33:51.382Z,5.30
2023-01-09T02:36:51.934Z,5.30
2023-01-09T02:39:37.837Z,5.40
2023-01-09T02:42:17.967Z,5.40
2023-01-09T02:44:45.160Z,5.50
2023-01-09T02:47:34.174Z,5.50
2023-01-09T02:50:06.559Z,5.50
2023-01-09T02:53:14.645Z,5.50
2023-01-09T02:55:59.626Z,5.60
2023-01-09T02:58:54.771Z,5.60
2023-01-09T03:01:36.167Z,5.60
2023-01-09T03:04:13.536Z,5.60
2023-01-09T03:07:11.676Z,5.60
2023-01-09T03:09:42.517Z,5.60
2023-01-09T03:12:24.865Z,5.70
2023-01-09T03:14:57.707Z,5.70
2023-01-09T03:17:47.420Z,5.70
2023-01-09T03:20:19.205Z,5.80
2023-01-09T03:22:56.990Z,5.80
2023-01-09T03:25:25.181Z,5.90
2023-01-09T03:28:02.892Z,5.90
2023-01-09T03:30:33.890Z,6.00
2023-01-09T03:33:01.181Z,6.10
2023-01-09T03:35:28.654Z,6.10
2023-01-09T03:37:55.965Z,6.20
2023-01-09T03:40:23.157Z,6.20
2023-01-09T03:42:50.329Z,6.30
2023-01-09T03:45:17.495Z,6.30
2023-01-09T03:47:44.857Z,6.30
2023-01-09T03:50:12.270Z,6.30
2023-01-09T03:52:39.544Z,6.30
2023-01-09T03:55:07.257Z,6.30
2023-01-09T03:57:34.505Z,6.40
2023-01-09T04:00:01.696Z,6.40
2023-01-09T04:02:28.843Z,6.40
2023-01-09T04:04:55.994Z,6.40
2023-01-09T04:07:23.208Z,6.40
2023-01-09T04:09:50.300Z,6.40
2023-01-09T04:12:17.416Z,6.40
2023-01-09T04:14:44.675Z,6.40
2023-01-09T04:17:11.904Z,6.50
2023-01-09T04:19:39.534Z,6.50
2023-01-09T04:22:06.794Z,6.60
2023-01-09T04:24:33.951Z,6.60
2023-01-09T04:27:01.159Z,6.60
2023-01-09T04:29:30.470Z,6.60
2023-01-09T04:31:57.668Z,6.70
2023-01-09T04:34:25.865Z,6.70
2023-01-09T04:36:54.010Z,6.70
2023-01-09T04:39:21.868Z,6.80
2023-01-09T04:41:49.030Z,6.80
2023-01-09T04:44:23.170Z,6.90
2023-01-09T04:46:52.244Z,6.90
2023-01-09T04:49:20.611Z,6.90
2023-01-09T04:51:48.058Z,6.90
2023-01-09T04:54:15.410Z,6.90
2023-01-09T04:56:43.763Z,6.90
2023-01-09T04:59:11.175Z,7.00
2023-01-09T05:01:38.832Z,6.90
2023-01-09T05:04:08.580Z,7.00
2023-01-09T05:06:35.776Z,7.00
2023-01-09T05:09:03.334Z,7.00
2023-01-09T05:11:30.586Z,6.90
2023-01-09T05:13:57.776Z,6.90
2023-01-09T05:16:25.043Z,6.90
2023-01-09T05:18:56.661Z,6.90
2023-01-09T05:21:24.845Z,6.90
2023-01-09T05:23:52.409Z,7.00
2023-01-09T05:26:24.743Z,7.00
2023-01-09T05:28:53.665Z,7.00
2023-01-09T05:31:23.929Z,7.10
2023-01-09T05:33:51.275Z,7.10
2023-01-09T05:36:18.579Z,7.20
2023-01-09T05:38:47.195Z,7.30
2023-01-09T05:41:14.471Z,7.30
2023-01-09T05:43:41.727Z,7.30
2023-01-09T05:46:09.296Z,7.30
2023-01-09T05:48:37.859Z,7.40
2023-01-09T05:51:05.187Z,7.40
2023-01-09T05:53:32.440Z,7.50
2023-01-09T05:56:00.903Z,7.50
2023-01-09T05:58:30.533Z,7.50
2023-01-09T06:00:58.855Z,7.60
2023-01-09T06:03:26.265Z,7.70
2023-01-09T06:05:53.627Z,7.80
2023-01-09T06:08:20.861Z,7.90
2023-01-09T06:10:48.240Z,8.00
2023-01-09T06:13:15.740Z,8.10
2023-01-09T06:15:43.561Z,8.10
2023-01-09T06:18:10.769Z,8.20
2023-01-09T06:20:37.948Z,8.20
2023-01-09T06:23:05.210Z,8.30
2023-01-09T06:25:32.571Z,8.40
2023-01-09T06:27:59.846Z,8.40
2023-01-09T06:30:27.075Z,8.50
2023-01-09T06:32:54.235Z,8.50
2023-01-09T06:35:22.461Z,8.50
2023-01-09T06:37:50.672Z,8.60
2023-01-09T06:40:18.677Z,8.60
2023-01-09T06:42:46.690Z,8.60
2023-01-09T06:45:16.014Z,8.70
2023-01-09T06:47:43.272Z,8.70
2023-01-09T06:50:11.303Z,8.70
2023-01-09T06:52:38.995Z,8.70
2023-01-09T06:55:07.142Z,8.80
2023-01-09T06:57:34.811Z,8.80
2023-01-09T07:00:02.509Z,8.80
2023-01-09T07:02:30.032Z,8.90
2023-01-09T07:04:58.745Z,8.90
2023-01-09T07:07:29.644Z,8.90
2023-01-09T07:09:56.860Z,9.00
2023-01-09T07:12:24.083Z,9.00
2023-01-09T07:14:55.217Z,9.00
2023-01-09T07:17:24.083Z,9.10
2023-01-09T07:19:51.460Z,9.10
2023-01-09T07:22:19.245Z,9.20
2023-01-09T07:24:47.736Z,9.20
2023-01-09T07:27:16.203Z,9.20
2023-01-09T07:29:43.424Z,9.30
2023-01-09T07:32:10.662Z,9.30
2023-01-09T07:34:37.860Z,9.30
2023-01-09T07:37:05.077Z,9.30
2023-01-09T07:39:32.395Z,9.40
2023-01-09T07:41:59.613Z,9.40
2023-01-09T07:44:26.891Z,9.40
2023-01-09T07:46:54.056Z,9.50
2023-01-09T07:49:21.396Z,9.50
2023-01-09T07:51:48.738Z,9.50
2023-01-09T07:54:16.278Z,9.60
2023-01-09T07:56:43.528Z,9.60
2023-01-09T07:59:10.758Z,9.70
2023-01-09T08:01:38.119Z,9.70
2023-01-09T08:04:06.616Z,9.80
2023-01-09T08:06:34.114Z,9.80
2023-01-09T08:09:01.565Z,9.80
2023-01-09T08:11:28.798Z,9.80
2023-01-09T08:13:55.977Z,9.80
2023-01-09T08:16:23.508Z,9.90
2023-01-09T08:18:52.135Z,9.90
2023-01-09T08:21:19.387Z,9.90
2023-01-09T08:23:46.700Z,10.00
2023-01-09T08:26:14.088Z,9.90
2023-01-09T08:28:41.658Z,10.00
2023-01-09T08:31:11.015Z,10.00
2023-01-09T08:33:40.423Z,10.00
2023-01-09T08:36:08.341Z,10.00
2023-01-09T08:38:35.605Z,10.00
2023-01-09T08:41:22.706Z,10.00
2023-01-09T08:44:08.877Z,10.00
2023-01-09T08:46:54.929Z,10.10
2023-01-09T08:49:23.584Z,10.10
2023-01-09T08:51:50.809Z,10.10
2023-01-09T08:54:18.034Z,10.10
2023-01-09T08:56:46.655Z,10.10
2023-01-09T08:59:14.136Z,10.20
2023-01-09T09:01:41.371Z,10.20
2023-01-09T09:04:08.863Z,10.20
2023-01-09T09:06:36.273Z,10.20
2023-01-09T09:09:03.970Z,10.20
2023-01-09T09:11:31.735Z,10.20
2023-01-09T09:14:01.012Z,10.20
2023-01-09T09:16:32.398Z,10.30
2023-01-09T09:18:59.580Z,10.30
2023-01-09T09:21:28.305Z,10.40
2023-01-09T09:23:58.975Z,10.40
2023-01-09T09:26:26.102Z,10.40
2023-01-09T09:28:53.285Z,10.40
2023-01-09T09:31:23.140Z,10.40
2023-01-09T09:33:50.391Z,10.50
2023-01-09T09:36:17.519Z,10.50
2023-01-09T09:38:44.767Z,10.50
2023-01-09T09:41:45.742Z,10.50
2023-01-09T09:44:48.377Z,10.50
2023-01-09T09:47:20.050Z,10.50
2023-01-09T09:50:00.371Z,10.50
2023-01-09T09:52:41.662Z,10.50
2023-01-09T09:55:32.052Z,10.50
2023-01-09T09:58:02.390Z,10.50
2023-01-09T10:00:33.090Z,10.50
2023-01-09T10:03:36.437Z,10.50
2023-01-09T10:06:10.988Z,10.50
2023-01-09T10:09:02.860Z,10.50
2023-01-09T10:11:58.203Z,10.50
2023-01-09T10:14:26.497Z,10.50
2023-01-09T10:17:23.089Z,10.60
2023-01-09T10:19:58.290Z,10.60
2023-01-09T10:23:02.616Z,10.60
2023-01-09T10:25:51.224Z,10.60
2023-01-09T10:28:33.747Z,10.60
2023-01-09T10:31:08.135Z,10.60
2023-01-09T10:33:38.219Z,10.60
2023-01-09T10:36:26.187Z,10.70
2023-01-09T10:38:58.298Z,10.70
2023-01-09T10:41:31.870Z,10.70
2023-01-09T10:44:33.711Z,10.70
2023-01-09T10:47:07.885Z,10.60
2023-01-09T10:49:36.289Z,10.60
2023-01-09T10:52:10.938Z,10.50
2023-01-09T10:55:02.698Z,10.50
2023-01-09T10:57:41.754Z,10.40
2023-01-09T11:00:17.226Z,10.40
2023-01-09T11:02:45.130Z,10.30
2023-01-09T11:05:19.134Z,10.30
2023-01-09T11:07:51.363Z,10.40
2023-01-09T11:10:18.976Z,10.40
2023-01-09T11:12:47.702Z,10.40
2023-01-09T11:15:30.453Z,10.40
2023-01-09T11:18:17.767Z,10.40
2023-01-09T11:20:45.027Z,10.40
2023-01-09T11:23:34.056Z,10.40
2023-01-09T11:26:03.582Z,10.40
2023-01-09T11:28:30.979Z,10.40
2023-01-09T11:31:02.260Z,10.40
2023-01-09T11:33:42.963Z,10.40
2023-01-09T11:36:15.716Z,10.40
2023-01-09T11:39:21.657Z,10.50
2023-01-09T11:41:54.828Z,10.60
2023-01-09T11:44:22.422Z,10.70
2023-01-09T11:46:51.429Z,10.60
2023-01-09T11:49:27.485Z,10.60
2023-01-09T11:52:17.240Z,10.50
2023-01-09T11:54:56.777Z,10.50
2023-01-09T11:57:25.526Z,10.40
2023-01-09T11:59:56.147Z,10.30
2023-01-09T12:02:35.873Z,10.30
2023-01-09T12:05:31.193Z,10.40
2023-01-09T12:08:25.666Z,10.40
2023-01-09T12:10:52.951Z,10.40
2023-01-09T12:13:35.155Z,10.50
2023-01-09T12:16:20.947Z,10.40
2023-01-09T12:18:57.591Z,10.40
2023-01-09T12:21:35.246Z,10.40
2023-01-09T12:24:27.880Z,10.40
2023-01-09T12:27:21.040Z,10.50
2023-01-09T12:30:12.362Z,10.50
2023-01-09T12:33:02.731Z,10.40
2023-01-09T12:35:39.799Z,10.30
2023-01-09T12:38:42.501Z,10.20
2023-01-09T12:41:33.424Z,10.20
2023-01-09T12:44:36.047Z,10.20
2023-01-09T12:47:29.813Z,10.20
2023-01-09T12:50:10.053Z,10.10
2023-01-09T12:52:49.008Z,10.00
2023-01-09T12:55:21.117Z,10.00
2023-01-09T12:57:56.141Z,10.00
2023-01-09T13:00:32.641Z,9.90
2023-01-09T13:03:18.577Z,9.90
2023-01-09T13:05:50.611Z,9.80
2023-01-09T13:08:24.500Z,9.80
2023-01-09T13:11:20.401Z,9.70
2023-01-09T13:13:55.951Z,9.70
2023-01-09T13:16:36.450Z,9.60
2023-01-09T13:19:16.720Z,9.50
2023-01-09T13:21:44.626Z,9.50
2023-01-09T13:24:20.453Z,9.50
2023-01-09T13:26:58.102Z,9.50
2023-01-09T13:29:28.866Z,9.50
2023-01-09T13:32:08.622Z,9.40
2023-01-09T13:34:38.658Z,9.40
2023-01-09T13:37:13.862Z,9.30
2023-01-09T13:39:41.755Z,9.20
2023-01-09T13:42:36.775Z,9.20
2023-01-09T13:45:31.367Z,9.20
2023-01-09T13:48:29.475Z,9.10
2023-01-09T13:51:35.064Z,9.10
2023-01-09T13:54:02.309Z,9.00
2023-01-09T13:56:32.477Z,9.00
2023-01-09T13:59:02.116Z,9.00
2023-01-09T14:01:36.118Z,9.00
2023-01-09T14:04:09.502Z,9.00
2023-01-09T14:06:36.978Z,8.90
2023-01-09T14:09:21.433Z,8.90
2023-01-09T14:12:01.447Z,8.90
2023-01-09T14:14:33.295Z,8.90
2023-01-09T14:17:03.470Z,8.80
2023-01-09T14:19:38.104Z,8.70
2023-01-09T14:22:07.568Z,8.70
2023-01-09T14:24:43.988Z,8.70
2023-01-09T14:27:48.831Z,8.70
2023-01-09T14:30:28.227Z,8.70
2023-01-09T14:33:27.591Z,8.70
2023-01-09T14:36:32.588Z,8.60
2023-01-09T14:39:07.208Z,8.60
2023-01-09T14:42:07.957Z,8.60
2023-01-09T14:45:06.266Z,8.60
2023-01-09T14:47:42.386Z,8.60
2023-01-09T14:50:31.199Z,8.60
2023-01-09T14:53:13.436Z,8.60
2023-01-09T14:55:51.005Z,8.60
2023-01-09T14:58:18.102Z,8.60
2023-01-09T15:00:54.693Z,8.60
2023-01-09T15:03:23.517Z,8.60
2023-01-09T15:05:52.957Z,8.50
2023-01-09T15:08:24.761Z,8.50
2023-01-09T15:10:54.629Z,8.50
2023-01-09T15:13:34.284Z,8.50
2023-01-09T15:16:06.061Z,8.50
2023-01-09T15:18:42.071Z,8.50
2023-01-09T15:21:18.191Z,8.50
2023-01-09T15:23:46.590Z,8.40
2023-01-09T15:26:34.037Z,8.40
2023-01-09T15:29:10.201Z,8.40
2023-01-09T15:31:40.469Z,8.30
2023-01-09T15:34:09.582Z,8.30
2023-01-09T15:36:37.672Z,8.30
2023-01-09T15:39:07.374Z,8.30
2023-01-09T15:41:55.351Z,8.30
2023-01-09T15:44:30.561Z,8.30
2023-01-09T15:46:59.832Z,8.30
2023-01-09T15:49:27.331Z,8.30
2023-01-09T15:51:54.885Z,8.30
2023-01-09T15:54:33.049Z,8.30
2023-01-09T15:57:25.563Z,8.30
2023-01-09T15:59:57.394Z,8.30
2023-01-09T16:02:44.646Z,8.30
2023-01-09T16:05:16.592Z,8.30
2023-01-09T16:07:48.957Z,8.30
2023-01-09T16:10:24.495Z,8.30
2023-01-09T16:12:53.313Z,8.30
2023-01-09T16:15:21.170Z,8.40
2023-01-09T16:18:20.312Z,8.40
2023-01-09T16:20:47.596Z,8.30
2023-01-09T16:23:35.605Z,8.30
2023-01-09T16:26:23.883Z,8.30
2023-01-09T16:28:51.846Z,8.30
2023-01-09T16:31:32.596Z,8.30
2023-01-09T16:34:06.536Z,8.30
2023-01-09T16:36:35.754Z,8.30
2023-01-09T16:39:04.829Z,8.30
2023-01-09T16:41:50.539Z,8.30
2023-01-09T16:44:19.416Z,8.30
2023-01-09T16:46:46.845Z,8.30
2023-01-09T16:49:36.579Z,8.20
2023-01-09T16:52:14.645Z,8.20
2023-01-09T16:54:43.690Z,8.20
2023-01-09T16:57:17.841Z,8.30
2023-01-09T16:59:45.892Z,8.30
2023-01-09T17:02:18.821Z,8.30
2023-01-09T17:04:49.130Z,8.20
2023-01-09T17:07:17.511Z,8.20
2023-01-09T17:09:45.846Z,8.20
2023-01-09T17:12:19.848Z,8.20
2023-01-09T17:14:48.039Z,8.20
2023-01-09T17:17:20.438Z,8.20
2023-01-09T17:19:48.146Z,8.20
2023-01-09T17:22:15.664Z,8.20
2023-01-09T17:25:01.501Z,8.20
2023-01-09T17:27:53.087Z,8.10
2023-01-09T17:30:21.070Z,8.20
2023-01-09T17:32:49.235Z,8.10
2023-01-09T17:35:17.855Z,8.10
2023-01-09T17:37:44.990Z,8.10
2023-01-09T17:40:23.326Z,8.20
2023-01-09T17:42:50.499Z,8.20
2023-01-09T17:45:17.765Z,8.10
2023-01-09T17:47:44.972Z,8.10
2023-01-09T17:50:20.189Z,8.10
2023-01-09T17:52:49.318Z,8.10
2023-01-09T17:55:16.591Z,8.10
2023-01-09T17:57:44.025Z,8.10
2023-01-09T18:00:26.636Z,8.10
2023-01-09T18:02:54.954Z,8.10
2023-01-09T18:05:23.286Z,8.10
2023-01-09T18:07:51.184Z,8.20
2023-01-09T18:10:23.662Z,8.20
2023-01-09T18:12:52.523Z,8.20
2023-01-09T18:15:24.596Z,8.20
2023-01-09T18:17:54.995Z,8.20
2023-01-09T18:20:33.620Z,8.10
2023-01-09T18:23:00.822Z,8.10
2023-01-09T18:25:27.974Z,8.10
2023-01-09T18:27:57.944Z,8.00
2023-01-09T18:30:26.061Z,8.00
2023-01-09T18:32:53.718Z,8.00
2023-01-09T18:35:24.083Z,7.90
2023-01-09T18:37:51.324Z,7.90
2023-01-09T18:40:23.639Z,7.90
2023-01-09T18:42:56.264Z,7.90
2023-01-09T18:45:28.658Z,7.80
2023-01-09T18:48:10.049Z,7.80
2023-01-09T18:50:38.359Z,7.80
2023-01-09T18:53:06.360Z,7.90
2023-01-09T18:55:35.937Z,7.80
2023-01-09T18:58:03.322Z,7.80
2023-01-09T19:00:30.731Z,7.90
2023-01-09T19:03:00.918Z,7.90
2023-01-09T19:05:28.278Z,7.80
2023-01-09T19:07:55.505Z,7.80
2023-01-09T19:10:22.774Z,7.80
2023-01-09T19:12:50.037Z,7.80
2023-01-09T19:15:17.240Z,7.80
2023-01-09T19:17:50.436Z,7.80
2023-01-09T19:20:20.748Z,7.80
2023-01-09T19:22:47.877Z,7.80
2023-01-09T19:25:14.999Z,7.80
2023-01-09T19:27:44.675Z,7.90
2023-01-09T19:30:17.482Z,7.90
2023-01-09T19:32:55.690Z,7.80
2023-01-09T19:35:25.439Z,7.80
2023-01-09T19:37:56.892Z,7.90
2023-01-09T19:40:36.760Z,7.80
2023-01-09T19:43:07.420Z,7.80
2023-01-09T19:45:34.744Z,7.80
2023-01-09T19:48:02.011Z,7.80
2023-01-09T19:50:29.207Z,7.80
2023-01-09T19:52:56.378Z,7.70
2023-01-09T19:55:23.594Z,7.70
2023-01-09T19:57:50.734Z,7.80
2023-01-09T20:00:18.244Z,7.70
2023-01-09T20:02:45.613Z,7.80
2023-01-09T20:05:12.843Z,7.80
2023-01-09T20:07:39.995Z,7.80
2023-01-09T20:10:07.517Z,7.80
2023-01-09T20:12:34.696Z,7.80
2023-01-09T20:15:02.420Z,7.80
2023-01-09T20:17:29.835Z,7.80
2023-01-09T20:19:57.172Z,7.80
2023-01-09T20:22:26.413Z,7.80
2023-01-09T20:24:53.575Z,7.80
2023-01-09T20:27:20.757Z,7.80
2023-01-09T20:29:48.356Z,7.80
2023-01-09T20:32:15.556Z,7.70
2023-01-09T20:34:43.846Z,7.70
2023-01-09T20:37:11.652Z,7.70
2023-01-09T20:39:39.261Z,7.70
2023-01-09T20:42:06.523Z,7.70
2023-01-09T20:44:33.856Z,7.70
2023-01-09T20:47:02.351Z,7.70
2023-01-09T20:49:29.604Z,7.70
2023-01-09T20:51:56.983Z,7.70
2023-01-09T20:54:24.269Z,7.70
2023-01-09T20:56:51.547Z,7.70
2023-01-09T20:59:22.543Z,7.70
2023-01-09T21:01:50.783Z,7.70
2023-01-09T21:04:18.464Z,7.80
2023-01-09T21:06:47.595Z,7.80
2023-01-09T21:09:16.590Z,7.80
2023-01-09T21:11:44.391Z,7.80
2023-01-09T21:14:14.685Z,7.80
2023-01-09T21:16:43.015Z,7.70
2023-01-09T21:19:11.180Z,7.70
2023-01-09T21:21:38.415Z,7.70
2023-01-09T21:24:07.631Z,7.70
2023-01-09T21:26:34.901Z,7.70
2023-01-09T21:29:08.439Z,7.60
2023-01-09T21:31:35.871Z,7.60
2023-01-09T21:34:14.713Z,7.60
2023-01-09T21:36:46.580Z,7.60
2023-01-09T21:39:13.711Z,7.70
2023-01-09T21:42:03.970Z,7.70
2023-01-09T21:44:52.745Z,7.70
2023-01-09T21:47:19.931Z,7.70
2023-01-09T21:49:50.112Z,7.70
2023-01-09T21:52:18.447Z,7.70
2023-01-09T21:54:48.221Z,7.70
2023-01-09T21:57:36.500Z,7.70
2023-01-09T22:00:10.365Z,7.60
2023-01-09T22:02:41.204Z,7.60
2023-01-09T22:13:22.530Z,7.50
2023-01-09T22:16:30.695Z,7.60
2023-01-09T22:18:58.129Z,7.60
2023-01-09T22:21:26.048Z,7.60
2023-01-09T22:23:53.795Z,7.50
2023-01-09T22:26:21.429Z,7.50
2023-01-09T22:28:49.526Z,7.40
2023-01-09T22:31:25.190Z,7.40
2023-01-09T22:33:53.780Z,7.30
2023-01-09T22:36:27.948Z,7.30
2023-01-09T22:38:57.388Z,7.40
2023-01-09T22:41:25.975Z,7.30
2023-01-09T22:43:53.222Z,7.40
2023-01-09T22:46:20.630Z,7.30
2023-01-09T22:48:48.159Z,7.30
2023-01-09T22:51:20.614Z,7.30
2023-01-09T22:53:47.775Z,7.40
2023-01-09T22:56:17.915Z,7.40
2023-01-09T22:58:53.964Z,7.40
2023-01-09T23:01:22.072Z,7.40
2023-01-09T23:03:49.172Z,7.40
2023-01-09T23:06:20.522Z,7.40
2023-01-09T23:08:50.706Z,7.30
2023-01-09T23:11:43.340Z,7.30
2023-01-09T23:14:11.412Z,7.20
2023-01-09T23:16:39.020Z,7.20
2023-01-09T23:19:10.000Z,7.10
2023-01-09T23:21:37.647Z,7.10
2023-01-09T23:24:07.060Z,7.20
2023-01-09T23:26:35.331Z,7.20
2023-01-09T23:29:02.739Z,7.10
2023-01-09T23:31:29.977Z,7.10
2023-01-09T23:33:57.261Z,7.10
2023-01-09T23:36:24.496Z,7.10
2023-01-09T23:38:51.869Z,7.10
2023-01-09T23:41:19.331Z,7.00
2023-01-09T23:43:46.580Z,7.00
2023-01-09T23:46:14.275Z,6.90
2023-01-09T23:48:41.532Z,6.90
2023-01-09T23:51:08.757Z,6.90
2023-01-09T23:53:35.965Z,6.90
2023-01-09T23:56:03.410Z,6.90
2023-01-09T23:58:30.516Z,6.90
